Terminal Aerodrome Forecast
Issued by NWS New Orleans/Baton Rouge, LA

Home | Current Version | Previous Version | Text Only | Print | Product List | Glossary On
Versions: 1 2 3 4 5 6 7 8 9 10 11 12 13 14
000
FTUS44 KLIX 260834 AAB
TAFBTR
TAF AMD
KBTR 260834Z 2609/2706 30010G20KT 2SM RA BR VCSH SCT010 BKN023
      OVC028
     FM260930 30009KT P6SM BKN025
     FM261400 31007KT P6SM FEW250=

USA.gov is the U.S. government's official web portal to all federal, state and local government web resources and services.